Time;durP1;ratioP1;P1;durP2;ratioP2;P2;SDS_P1;SDS_P2;PMS_P1;PMS_P2;Temp;Humidity;BMP_temperature;BMP_pressure;BME280_temperature;BME280_humidity;BME280_pressure;Samples;Min_cycle;Max_cycle;Signal;HPM_P1;HPM_P2
2022/09/12 00:00:04;;;;;;;8.37;7.50;;;12.90;99.90;;;;;;4995473;28;20180;-88
2022/09/12 00:02:37;;;;;;;8.07;7.37;;;13.00;99.90;;;;;;5012005;28;20318;-88
2022/09/12 00:05:04;;;;;;;7.97;7.20;;;13.00;99.90;;;;;;4979185;28;20263;-88
2022/09/12 00:07:30;;;;;;;8.07;6.70;;;13.00;99.90;;;;;;4996972;28;20177;-88
2022/09/12 00:09:56;;;;;;;7.87;6.77;;;12.90;99.90;;;;;;4998448;28;20232;-88
2022/09/12 00:12:22;;;;;;;8.40;7.57;;;12.90;99.90;;;;;;4981625;28;20183;-88
2022/09/12 00:14:47;;;;;;;8.50;7.43;;;12.80;99.90;;;;;;4994940;28;20284;-88
2022/09/12 00:17:14;;;;;;;9.13;7.90;;;12.80;99.90;;;;;;4997910;28;20183;-87
2022/09/12 00:19:40;;;;;;;8.93;8.07;;;12.80;99.90;;;;;;4998587;28;20305;-88
2022/09/12 00:22:06;;;;;;;8.93;8.03;;;12.70;99.90;;;;;;4985210;28;20186;-87
2022/09/12 00:24:33;;;;;;;10.30;7.83;;;12.60;99.90;;;;;;4995008;28;20199;-88
2022/09/12 00:26:58;;;;;;;9.07;8.17;;;12.50;99.90;;;;;;5007191;28;20220;-87
2022/09/12 00:29:25;;;;;;;55.00;9.80;;;12.40;99.90;;;;;;4999318;28;20182;-87
2022/09/12 00:31:51;;;;;;;14.77;8.80;;;12.30;99.90;;;;;;4988442;28;20212;-87
2022/09/12 00:34:16;;;;;;;10.10;9.10;;;12.20;99.90;;;;;;4995544;28;20691;-87
2022/09/12 00:36:42;;;;;;;17.17;9.77;;;12.20;99.90;;;;;;4995465;28;20176;-88
2022/09/12 00:39:11;;;;;;;13.83;10.03;;;12.20;99.90;;;;;;4994452;28;20179;-88
2022/09/12 00:41:39;;;;;;;14.83;10.83;;;12.30;99.90;;;;;;4991349;28;20194;-88
2022/09/12 00:44:20;;;;;;;14.40;10.77;;;12.30;99.90;;;;;;4997476;28;20217;-88
2022/09/12 00:47:15;;;;;;;10.80;9.70;;;12.30;99.90;;;;;;4994032;28;20213;-88
2022/09/12 00:50:05;;;;;;;11.20;9.37;;;12.30;99.90;;;;;;4979866;28;20195;-88
2022/09/12 00:52:31;;;;;;;10.07;8.73;;;12.40;99.90;;;;;;4997143;28;20186;-88
2022/09/12 00:55:00;;;;;;;10.43;9.33;;;12.40;99.90;;;;;;5013642;28;20205;-88
2022/09/12 00:57:32;;;;;;;8.80;7.97;;;12.40;99.90;;;;;;4993762;28;20205;-88
2022/09/12 01:00:11;;;;;;;8.80;8.00;;;12.40;99.90;;;;;;4993951;28;20193;-88
2022/09/12 01:02:37;;;;;;;9.03;8.13;;;12.40;99.90;;;;;;4996994;28;20185;-87
2022/09/12 01:05:05;;;;;;;9.90;7.73;;;12.30;99.90;;;;;;4997054;28;20198;-88
2022/09/12 01:07:34;;;;;;;8.73;7.83;;;12.30;99.90;;;;;;4996461;28;20204;-88
2022/09/12 01:10:01;;;;;;;9.53;8.63;;;12.30;99.90;;;;;;4997321;28;20182;-87
2022/09/12 01:12:28;;;;;;;11.13;8.13;;;12.20;99.90;;;;;;4980026;28;20183;-88
2022/09/12 01:14:54;;;;;;;11.40;8.60;;;12.20;99.90;;;;;;4993826;28;20210;-88
2022/09/12 01:17:20;;;;;;;8.87;8.00;;;12.10;99.90;;;;;;5012430;28;20193;-87
2022/09/12 01:20:17;;;;;;;11.77;9.07;;;12.10;99.90;;;;;;5016804;28;20230;-87
2022/09/12 01:23:06;;;;;;;11.70;8.90;;;12.10;99.90;;;;;;4994978;28;20181;-87
2022/09/12 01:26:06;;;;;;;11.20;8.93;;;12.10;99.90;;;;;;4976934;28;20721;-87
2022/09/12 01:29:06;;;;;;;10.43;9.33;;;12.00;99.90;;;;;;4977576;28;20174;-88
2022/09/12 01:32:00;;;;;;;11.17;8.83;;;12.00;99.90;;;;;;4984471;28;20196;-88
2022/09/12 01:34:30;;;;;;;13.70;9.97;;;12.00;99.90;;;;;;4996641;28;20201;-88
2022/09/12 01:37:14;;;;;;;12.03;10.80;;;12.10;99.90;;;;;;4995364;28;20190;-88
2022/09/12 01:40:15;;;;;;;12.93;9.10;;;12.10;99.90;;;;;;4993058;28;20212;-87
2022/09/12 01:42:55;;;;;;;18.90;8.80;;;12.10;99.90;;;;;;4996289;28;20180;-87
2022/09/12 01:45:46;;;;;;;10.37;9.30;;;12.10;99.90;;;;;;4996751;28;20255;-87
2022/09/12 01:48:19;;;;;;;9.43;8.33;;;12.00;99.90;;;;;;4993140;28;20185;-87
2022/09/12 01:50:51;;;;;;;8.60;7.77;;;12.00;99.90;;;;;;4977336;28;20178;-87
2022/09/12 01:53:30;;;;;;;8.80;7.90;;;12.00;99.90;;;;;;4996131;28;20185;-87
2022/09/12 01:56:21;;;;;;;8.63;7.83;;;11.90;99.90;;;;;;4996603;28;20210;-87
2022/09/12 01:59:10;;;;;;;8.20;7.40;;;11.90;99.90;;;;;;4993344;28;20195;-88
2022/09/12 02:01:45;;;;;;;7.53;6.83;;;11.80;99.90;;;;;;4981593;28;20205;-87
2022/09/12 02:04:17;;;;;;;7.60;6.87;;;11.90;99.90;;;;;;4996649;28;20214;-87
2022/09/12 02:07:06;;;;;;;7.10;6.50;;;11.80;99.90;;;;;;4991466;28;20201;-87
2022/09/12 02:09:50;;;;;;;8.00;7.20;;;11.80;99.90;;;;;;4977132;28;20192;-87
2022/09/12 02:12:23;;;;;;;7.57;6.87;;;11.80;99.90;;;;;;5001338;28;20180;-87
2022/09/12 02:14:54;;;;;;;7.70;7.00;;;11.80;99.90;;;;;;4996303;28;20206;-87
2022/09/12 02:17:25;;;;;;;9.13;8.23;;;11.80;99.90;;;;;;4992054;28;20183;-88
2022/09/12 02:20:15;;;;;;;7.73;7.03;;;11.80;99.90;;;;;;4996434;28;20182;-87
2022/09/12 02:22:42;;;;;;;8.23;7.43;;;11.80;99.90;;;;;;4985916;28;20189;-88
2022/09/12 02:25:10;;;;;;;8.20;7.40;;;11.80;99.90;;;;;;4992946;28;20304;-88
2022/09/12 02:27:41;;;;;;;8.03;7.23;;;11.70;99.90;;;;;;5002308;28;20203;-87
2022/09/12 02:30:09;;;;;;;7.77;6.97;;;11.70;99.90;;;;;;4996110;28;20190;-87
2022/09/12 02:33:08;;;;;;;7.43;6.70;;;11.70;99.90;;;;;;4995189;28;20180;-87
2022/09/12 02:36:01;;;;;;;6.67;6.00;;;11.70;99.90;;;;;;4996415;28;20248;-88
2022/09/12 02:38:44;;;;;;;8.07;7.30;;;11.70;99.90;;;;;;4980725;28;20178;-88
2022/09/12 02:41:11;;;;;;;8.43;7.57;;;11.70;99.90;;;;;;4993163;28;20184;-88
2022/09/12 02:43:37;;;;;;;8.57;7.67;;;11.60;99.90;;;;;;5008999;28;20192;-88
2022/09/12 02:46:08;;;;;;;7.83;7.13;;;11.60;99.90;;;;;;4996167;28;20269;-88
2022/09/12 02:48:38;;;;;;;7.77;6.80;;;11.60;99.90;;;;;;4997626;28;20185;-87
2022/09/12 02:51:04;;;;;;;11.67;6.30;;;11.50;99.90;;;;;;4992230;28;20209;-88
2022/09/12 02:53:30;;;;;;;7.00;5.87;;;11.40;99.90;;;;;;4996266;28;20210;-87
2022/09/12 02:55:56;;;;;;;8.37;6.80;;;11.30;99.90;;;;;;5002769;28;20223;-88
2022/09/12 02:58:28;;;;;;;7.63;6.67;;;11.30;99.90;;;;;;5015219;28;20278;-87
2022/09/12 03:01:02;;;;;;;13.53;7.73;;;11.30;99.90;;;;;;4997690;28;20190;-87
2022/09/12 03:03:41;;;;;;;10.93;7.60;;;11.20;99.90;;;;;;4996370;28;20193;-87
2022/09/12 03:06:23;;;;;;;8.43;7.63;;;11.10;99.90;;;;;;4980101;28;20218;-87
2022/09/12 03:09:19;;;;;;;7.73;7.03;;;11.10;99.90;;;;;;4996140;28;20185;-87
2022/09/12 03:12:07;;;;;;;7.40;6.70;;;11.10;99.90;;;;;;4998714;28;20184;-87
2022/09/12 03:14:51;;;;;;;8.67;7.27;;;11.10;99.90;;;;;;4999254;28;20202;-87
2022/09/12 03:17:19;;;;;;;6.70;6.10;;;11.10;99.90;;;;;;4992780;28;20201;-88
2022/09/12 03:19:46;;;;;;;6.57;5.97;;;11.10;99.90;;;;;;5019199;28;20209;-87
2022/09/12 03:22:30;;;;;;;6.10;5.60;;;11.00;99.90;;;;;;5001830;28;20267;-87
2022/09/12 03:25:19;;;;;;;5.73;5.23;;;11.00;99.90;;;;;;5012027;28;20216;-87
2022/09/12 03:28:06;;;;;;;6.67;6.07;;;11.00;99.90;;;;;;5014604;28;20183;-87
2022/09/12 03:30:44;;;;;;;5.93;5.43;;;11.10;99.90;;;;;;4999037;28;20239;-87
2022/09/12 03:33:16;;;;;;;11.00;6.10;;;11.10;99.90;;;;;;4979907;28;20192;-87
2022/09/12 03:35:42;;;;;;;15.97;6.53;;;11.00;99.90;;;;;;4978648;28;20211;-86
2022/09/12 03:38:08;;;;;;;12.23;6.50;;;11.00;99.90;;;;;;5009670;28;20215;-87
2022/09/12 03:40:51;;;;;;;9.77;6.27;;;10.90;99.90;;;;;;4995765;28;20187;-87
2022/09/12 03:43:18;;;;;;;24.50;7.20;;;10.90;99.90;;;;;;4995181;28;20191;-87
2022/09/12 03:45:44;;;;;;;8.47;7.33;;;10.90;99.90;;;;;;5011928;28;20210;-87
2022/09/12 03:48:10;;;;;;;16.80;8.00;;;10.90;99.90;;;;;;5011904;28;20179;-87
2022/09/12 03:50:36;;;;;;;14.87;8.00;;;10.90;99.90;;;;;;4996548;28;20178;-87
2022/09/12 03:53:03;;;;;;;13.70;7.63;;;10.90;99.90;;;;;;4995047;28;20183;-87
2022/09/12 03:55:28;;;;;;;8.73;7.50;;;10.90;99.90;;;;;;4979476;28;20207;-87
2022/09/12 03:57:55;;;;;;;9.73;7.00;;;11.00;99.90;;;;;;4980255;28;20194;-87
2022/09/12 04:00:22;;;;;;;8.57;7.60;;;11.00;99.90;;;;;;4992329;28;20214;-87
2022/09/12 04:02:51;;;;;;;7.70;7.00;;;11.00;99.90;;;;;;4997156;28;20187;-87
2022/09/12 04:05:17;;;;;;;8.07;6.90;;;11.00;99.90;;;;;;4990965;28;20196;-87
2022/09/12 04:07:43;;;;;;;9.17;7.37;;;11.00;99.90;;;;;;5004527;28;20186;-86
2022/09/12 04:10:09;;;;;;;11.00;7.20;;;11.00;99.90;;;;;;4990896;28;20176;-86
2022/09/12 04:12:35;;;;;;;7.23;6.13;;;11.00;99.90;;;;;;4980679;28;20247;-86
2022/09/12 04:15:01;;;;;;;7.67;6.87;;;11.00;99.90;;;;;;4985300;28;20199;-87
2022/09/12 04:17:27;;;;;;;8.90;7.37;;;11.10;99.90;;;;;;5013247;28;20211;-87
2022/09/12 04:19:53;;;;;;;6.97;6.27;;;11.10;99.90;;;;;;5013403;28;20187;-86
2022/09/12 04:22:19;;;;;;;10.37;6.67;;;11.00;99.90;;;;;;5013346;28;20176;-87
2022/09/12 04:24:45;;;;;;;8.13;6.37;;;11.00;99.90;;;;;;5013342;28;20208;-87
2022/09/12 04:27:11;;;;;;;9.03;6.70;;;10.90;99.90;;;;;;5013169;28;20212;-87
2022/09/12 04:29:37;;;;;;;6.53;5.93;;;10.90;99.90;;;;;;4997059;28;20284;-87
2022/09/12 04:32:03;;;;;;;6.93;6.33;;;10.80;99.90;;;;;;5013514;28;20191;-86
2022/09/12 04:34:31;;;;;;;6.07;5.47;;;10.80;99.90;;;;;;5013181;28;20191;-87
2022/09/12 04:36:56;;;;;;;6.27;5.73;;;10.80;99.90;;;;;;5012837;28;20188;-87
2022/09/12 04:39:22;;;;;;;7.80;6.30;;;10.80;99.90;;;;;;5013147;28;20250;-86
2022/09/12 04:41:48;;;;;;;6.90;6.30;;;10.80;99.90;;;;;;5016761;28;20209;-87
2022/09/12 04:44:14;;;;;;;7.83;7.13;;;10.80;99.90;;;;;;4999926;28;20345;-86
2022/09/12 04:46:43;;;;;;;7.70;7.00;;;10.80;99.90;;;;;;4999400;28;20211;-86
2022/09/12 04:49:10;;;;;;;7.37;6.67;;;10.70;99.90;;;;;;4998104;28;20179;-87
2022/09/12 04:51:37;;;;;;;7.70;7.00;;;10.70;99.90;;;;;;4980530;28;20180;-87
2022/09/12 04:54:11;;;;;;;6.87;6.27;;;10.70;99.90;;;;;;4988290;28;20684;-86
2022/09/12 04:56:39;;;;;;;7.60;6.90;;;10.70;99.90;;;;;;5016685;28;20586;-87
2022/09/12 04:59:07;;;;;;;6.77;6.07;;;10.70;99.90;;;;;;4999727;28;20187;-87
2022/09/12 05:01:36;;;;;;;5.70;5.10;;;10.70;99.90;;;;;;4999937;28;20178;-87
2022/09/12 05:04:05;;;;;;;5.40;4.90;;;10.70;99.90;;;;;;5000170;28;20289;-86
2022/09/12 05:06:34;;;;;;;5.40;4.87;;;10.70;99.90;;;;;;5002948;28;20293;-86
2022/09/12 05:09:01;;;;;;;5.90;5.40;;;10.70;99.90;;;;;;5015711;28;20206;-87
2022/09/12 05:11:30;;;;;;;4.70;4.20;;;10.70;99.90;;;;;;5015915;28;20179;-87
2022/09/12 05:13:56;;;;;;;4.53;4.13;;;10.70;99.90;;;;;;4996614;28;20209;-86
2022/09/12 05:16:24;;;;;;;4.50;4.10;;;10.70;99.90;;;;;;4996948;28;20183;-86
2022/09/12 05:18:50;;;;;;;4.70;4.30;;;10.70;99.90;;;;;;4996768;28;20190;-86
2022/09/12 05:21:18;;;;;;;4.60;4.17;;;10.80;99.90;;;;;;4997291;28;20214;-86
2022/09/12 05:23:46;;;;;;;3.90;3.60;;;10.70;99.90;;;;;;4999297;28;20183;-86
2022/09/12 05:26:14;;;;;;;4.00;3.70;;;10.70;99.90;;;;;;4994080;28;20210;-86
2022/09/12 05:28:41;;;;;;;3.63;3.33;;;10.70;99.90;;;;;;4992386;28;20182;-86
2022/09/12 05:31:09;;;;;;;4.17;3.77;;;10.70;99.90;;;;;;4997098;28;20186;-87
2022/09/12 05:33:37;;;;;;;4.47;3.90;;;10.70;99.90;;;;;;4993510;28;20179;-86
2022/09/12 05:36:06;;;;;;;4.10;3.80;;;10.70;99.90;;;;;;4993405;28;20181;-87
2022/09/12 05:38:36;;;;;;;3.70;3.40;;;10.70;99.90;;;;;;5012436;28;20251;-86
2022/09/12 05:41:11;;;;;;;3.90;3.40;;;10.60;99.90;;;;;;4997018;28;20182;-86
2022/09/12 05:43:39;;;;;;;3.90;3.40;;;10.60;99.90;;;;;;4995881;28;20186;-86
2022/09/12 05:46:07;;;;;;;3.17;2.97;;;10.70;99.90;;;;;;4993724;28;20301;-86
2022/09/12 05:48:38;;;;;;;3.87;3.57;;;10.70;99.90;;;;;;4996148;28;20210;-86
2022/09/12 05:51:11;;;;;;;3.53;3.23;;;10.70;99.90;;;;;;4996934;28;20170;-86
2022/09/12 05:53:38;;;;;;;3.40;3.10;;;10.70;99.90;;;;;;5011838;28;20178;-86
2022/09/12 05:56:12;;;;;;;4.43;3.73;;;10.70;99.90;;;;;;4988029;28;20187;-86
2022/09/12 05:58:41;;;;;;;4.90;4.40;;;10.70;99.90;;;;;;4993271;28;20652;-86
2022/09/12 06:01:15;;;;;;;4.60;4.13;;;10.70;99.90;;;;;;4998600;28;20274;-86
2022/09/12 06:03:47;;;;;;;4.17;3.83;;;10.70;99.90;;;;;;4993564;28;20179;-86
2022/09/12 06:06:14;;;;;;;4.87;4.13;;;10.80;99.90;;;;;;4993349;28;20203;-87
2022/09/12 06:08:42;;;;;;;4.53;4.13;;;10.90;99.90;;;;;;4992911;28;20230;-86
2022/09/12 06:11:13;;;;;;;5.03;4.63;;;10.90;99.90;;;;;;4996625;28;20180;-86
2022/09/12 06:13:41;;;;;;;4.70;4.30;;;11.00;99.90;;;;;;4996688;28;20261;-86
2022/09/12 06:16:16;;;;;;;4.87;4.47;;;10.90;99.90;;;;;;4983601;28;20188;-86
2022/09/12 06:18:47;;;;;;;5.30;4.80;;;11.00;99.90;;;;;;5007941;28;20194;-86
2022/09/12 06:21:13;;;;;;;4.87;4.47;;;11.00;99.90;;;;;;5015511;28;20187;-86
2022/09/12 06:23:39;;;;;;;4.80;4.30;;;11.00;99.90;;;;;;5018839;28;20183;-87
2022/09/12 06:26:08;;;;;;;5.13;4.73;;;11.00;99.90;;;;;;4999702;28;20261;-87
2022/09/12 06:28:36;;;;;;;4.20;3.90;;;11.10;99.90;;;;;;5004309;28;20171;-87
2022/09/12 06:31:15;;;;;;;5.33;4.20;;;11.20;99.90;;;;;;4993805;28;20222;-87
2022/09/12 06:33:44;;;;;;;5.00;4.23;;;11.20;99.90;;;;;;5001118;28;20594;-87
2022/09/12 06:36:18;;;;;;;5.07;4.57;;;11.30;99.90;;;;;;4999329;28;20266;-87
2022/09/12 06:38:45;;;;;;;4.50;4.10;;;11.40;99.90;;;;;;4998606;28;20198;-92
2022/09/12 06:41:12;;;;;;;5.47;4.97;;;11.50;99.90;;;;;;4999274;28;20240;-87
2022/09/12 06:43:40;;;;;;;5.20;4.70;;;11.60;99.90;;;;;;4999341;28;20187;-88
2022/09/12 06:46:06;;;;;;;7.17;4.97;;;11.70;99.90;;;;;;4997384;28;20284;-87
2022/09/12 06:48:32;;;;;;;5.07;4.57;;;11.70;99.90;;;;;;5007872;28;20243;-87
2022/09/12 06:51:04;;;;;;;6.80;4.57;;;11.90;99.90;;;;;;5003917;28;20190;-87
2022/09/12 06:53:32;;;;;;;4.67;4.27;;;12.00;99.90;;;;;;4995237;28;20182;-87
2022/09/12 06:56:00;;;;;;;6.50;4.90;;;12.20;99.90;;;;;;4995915;28;20213;-87
2022/09/12 06:58:27;;;;;;;5.77;5.17;;;12.30;99.90;;;;;;4996057;28;20181;-87
2022/09/12 07:01:04;;;;;;;5.20;4.80;;;12.50;99.90;;;;;;4996421;28;20182;-87
2022/09/12 07:03:31;;;;;;;5.07;4.67;;;12.60;99.90;;;;;;4996288;28;20214;-87
2022/09/12 07:06:00;;;;;;;6.53;5.93;;;12.70;99.90;;;;;;4996384;28;20221;-87
2022/09/12 07:08:30;;;;;;;7.00;6.30;;;12.70;99.90;;;;;;4996152;28;20277;-87
2022/09/12 07:10:58;;;;;;;7.30;6.60;;;12.70;99.90;;;;;;4996183;28;20281;-87
2022/09/12 07:13:24;;;;;;;7.10;6.40;;;12.80;99.90;;;;;;4996263;28;20247;-88
2022/09/12 07:15:50;;;;;;;9.27;6.70;;;12.90;99.90;;;;;;5012568;28;20256;-87
2022/09/12 07:18:16;;;;;;;6.53;5.93;;;12.90;99.90;;;;;;4999833;28;20712;-87
2022/09/12 07:20:42;;;;;;;7.80;7.10;;;13.00;99.90;;;;;;5015747;28;20206;-87
2022/09/12 07:23:08;;;;;;;8.10;7.30;;;13.10;99.90;;;;;;4999438;28;20206;-87
2022/09/12 07:25:34;;;;;;;7.27;6.57;;;13.10;99.90;;;;;;4999586;28;20203;-87
2022/09/12 07:28:01;;;;;;;10.37;7.80;;;13.20;99.90;;;;;;4999517;28;20233;-87
2022/09/12 07:30:27;;;;;;;11.07;8.20;;;13.20;99.90;;;;;;5000189;28;20194;-87
2022/09/12 07:32:53;;;;;;;8.70;7.90;;;13.10;99.90;;;;;;5000481;28;20285;-87
2022/09/12 07:35:20;;;;;;;8.37;7.57;;;13.10;99.90;;;;;;5000078;28;20229;-87
2022/09/12 07:37:46;;;;;;;8.40;7.57;;;13.20;99.90;;;;;;5015830;28;20174;-87
2022/09/12 07:40:11;;;;;;;7.47;6.77;;;13.40;99.90;;;;;;4999941;28;20179;-87
2022/09/12 07:42:37;;;;;;;7.97;7.17;;;13.40;99.90;;;;;;4998926;28;20189;-87
2022/09/12 07:45:03;;;;;;;9.60;7.70;;;13.60;99.90;;;;;;4998615;28;20199;-87
2022/09/12 07:47:29;;;;;;;7.57;6.87;;;13.60;99.90;;;;;;4998514;28;20241;-88
2022/09/12 07:49:55;;;;;;;7.33;6.63;;;13.70;99.90;;;;;;4997672;28;20183;-87
2022/09/12 07:52:21;;;;;;;7.00;6.40;;;13.80;99.90;;;;;;5012274;28;20196;-88
2022/09/12 07:54:47;;;;;;;6.53;5.93;;;14.00;99.90;;;;;;4994397;28;20191;-87
2022/09/12 07:57:14;;;;;;;7.97;7.17;;;14.10;99.90;;;;;;5003750;28;20202;-88
2022/09/12 07:59:41;;;;;;;7.97;7.27;;;14.20;99.90;;;;;;4991486;28;20183;-87
2022/09/12 08:02:14;;;;;;;7.57;6.87;;;14.40;99.90;;;;;;5012444;28;20210;-88
2022/09/12 08:04:43;;;;;;;8.30;7.57;;;14.50;99.90;;;;;;4998966;28;20210;-88
2022/09/12 08:07:09;;;;;;;8.70;7.90;;;14.60;99.90;;;;;;4994847;28;20206;-87
2022/09/12 08:09:35;;;;;;;9.53;8.67;;;14.70;99.90;;;;;;5011462;28;20245;-88
2022/09/12 08:12:01;;;;;;;7.43;6.73;;;14.90;99.90;;;;;;4997916;28;20233;-87
2022/09/12 08:14:28;;;;;;;7.33;6.63;;;15.00;99.90;;;;;;5010207;28;20258;-88
2022/09/12 08:16:54;;;;;;;8.20;7.40;;;15.20;99.90;;;;;;4995376;28;20202;-88
2022/09/12 08:19:21;;;;;;;8.50;7.70;;;15.40;99.90;;;;;;4986855;28;20194;-88
2022/09/12 08:21:47;;;;;;;8.43;7.63;;;15.60;99.90;;;;;;4995602;28;20183;-88
2022/09/12 08:24:14;;;;;;;8.53;7.73;;;15.70;99.90;;;;;;4994456;28;20302;-88
2022/09/12 08:26:40;;;;;;;8.17;7.37;;;15.70;99.90;;;;;;4994426;28;20250;-87
2022/09/12 08:29:05;;;;;;;9.23;8.33;;;15.90;99.90;;;;;;4994587;28;20214;-88
2022/09/12 08:31:35;;;;;;;9.13;8.33;;;16.10;99.90;;;;;;4994957;28;20195;-88
2022/09/12 08:34:03;;;;;;;8.90;8.00;;;16.20;99.90;;;;;;4994512;28;20192;-88
2022/09/12 08:36:29;;;;;;;8.50;7.43;;;16.40;99.90;;;;;;4994504;28;20186;-88
2022/09/12 08:39:01;;;;;;;8.10;7.40;;;16.60;99.90;;;;;;4978470;28;20186;-88
2022/09/12 08:41:33;;;;;;;9.47;7.90;;;16.80;99.90;;;;;;4994533;28;20294;-88
2022/09/12 08:44:08;;;;;;;8.97;8.10;;;16.90;99.90;;;;;;5011052;28;20230;-88
2022/09/12 08:46:39;;;;;;;8.63;7.83;;;17.10;99.90;;;;;;4993784;28;20202;-87
2022/09/12 08:49:11;;;;;;;10.00;9.00;;;17.20;99.90;;;;;;5012835;28;20186;-88
2022/09/12 08:51:38;;;;;;;9.30;7.78;;;17.30;99.90;;;;;;5013935;28;20627;-88
2022/09/12 08:54:11;;;;;;;9.43;7.87;;;17.50;99.90;;;;;;5013822;28;20288;-88
2022/09/12 08:56:38;;;;;;;8.30;7.60;;;17.50;99.90;;;;;;4997438;28;20274;-88
2022/09/12 08:59:04;;;;;;;7.40;6.70;;;17.70;99.90;;;;;;5013866;28;20187;-88
2022/09/12 09:01:34;;;;;;;8.45;7.65;;;17.90;99.90;;;;;;4998037;28;20188;-88
2022/09/12 09:04:28;;;;;;;7.97;7.18;;;18.00;99.90;;;;;;5013921;28;20205;-88
2022/09/12 09:07:13;;;;;;;8.13;7.32;;;18.30;99.90;;;;;;4997237;28;20274;-88
2022/09/12 09:09:59;;;;;;;6.70;6.00;;;18.50;99.90;;;;;;4997349;28;20186;-87
2022/09/12 09:12:34;;;;;;;6.63;6.05;;;18.70;99.90;;;;;;5013735;28;20182;-88
2022/09/12 09:15:20;;;;;;;5.38;4.88;;;18.90;99.90;;;;;;4997101;28;20276;-88
2022/09/12 09:18:15;;;;;;;6.15;5.28;;;19.00;99.90;;;;;;5004711;28;20189;-88
2022/09/12 09:21:02;;;;;;;6.35;5.75;;;19.20;99.90;;;;;;5025888;28;20190;-89
2022/09/12 09:23:37;;;;;;;7.57;6.57;;;19.30;99.90;;;;;;5017041;28;20177;-88
2022/09/12 09:26:25;;;;;;;5.00;4.50;;;19.30;99.90;;;;;;5016893;28;20291;-88
2022/09/12 09:29:33;;;;;;;4.60;4.20;;;19.40;99.90;;;;;;5016758;28;20178;-88
2022/09/12 09:32:02;;;;;;;3.90;3.60;;;19.50;99.90;;;;;;4999393;28;20213;-89
2022/09/12 09:34:30;;;;;;;4.30;3.90;;;19.60;99.90;;;;;;5016587;28;20197;-88
2022/09/12 09:37:18;;;;;;;4.15;3.70;;;19.70;99.90;;;;;;5016176;28;20243;-88
2022/09/12 09:40:02;;;;;;;4.90;4.40;;;19.90;99.90;;;;;;5016715;28;20230;-88
2022/09/12 09:43:01;;;;;;;4.60;4.20;;;20.00;99.90;;;;;;5016514;28;20186;-88
2022/09/12 09:45:28;;;;;;;4.53;3.97;;;20.10;99.90;;;;;;5016635;28;20304;-88
2022/09/12 09:48:00;;;;;;;3.80;3.50;;;20.20;99.90;;;;;;5000572;28;20655;-88
2022/09/12 09:50:28;;;;;;;5.22;3.33;;;20.30;99.90;;;;;;5005118;28;20175;-88
2022/09/12 09:52:58;;;;;;;5.75;4.00;;;20.50;99.90;;;;;;4983842;28;20193;-88
2022/09/12 09:55:33;;;;;;;3.80;3.50;;;20.50;99.90;;;;;;5013020;28;20194;-88
2022/09/12 09:58:02;;;;;;;3.60;3.28;;;20.70;99.90;;;;;;5025613;28;20182;-88
2022/09/12 10:00:33;;;;;;;3.15;2.88;;;20.80;99.90;;;;;;5009590;28;20183;-88
2022/09/12 10:03:03;;;;;;;3.75;3.45;;;21.00;99.90;;;;;;5006569;28;20286;-88
2022/09/12 10:05:34;;;;;;;3.00;2.80;;;21.10;99.90;;;;;;4997389;28;20209;-88
2022/09/12 10:08:03;;;;;;;3.58;3.20;;;21.20;99.90;;;;;;5017355;28;20258;-88
2022/09/12 10:10:30;;;;;;;3.65;3.35;;;21.40;99.90;;;;;;4999014;28;20190;-88
2022/09/12 10:13:08;;;;;;;3.30;3.00;;;21.50;99.90;;;;;;4989799;28;20179;-88
2022/09/12 10:15:36;;;;;;;3.22;2.85;;;21.60;99.90;;;;;;5018523;28;20208;-88
2022/09/12 10:18:04;;;;;;;3.33;3.13;;;21.80;99.90;;;;;;5000842;28;20193;-88
2022/09/12 10:20:39;;;;;;;4.05;3.10;;;21.90;99.90;;;;;;5006291;28;20187;-89
2022/09/12 10:23:36;;;;;;;3.38;2.40;;;21.90;99.90;;;;;;5001314;28;20170;-89
2022/09/12 10:26:13;;;;;;;3.20;2.90;;;21.80;99.90;;;;;;4999898;28;20199;-88
2022/09/12 10:28:47;;;;;;;3.28;2.75;;;22.00;99.90;;;;;;5000315;28;20187;-89
2022/09/12 10:31:42;;;;;;;2.90;2.60;;;22.10;99.90;;;;;;5000830;28;20194;-88
2022/09/12 10:34:39;;;;;;;2.53;2.33;;;22.20;99.90;;;;;;4995665;28;20300;-89
2022/09/12 10:37:16;;;;;;;2.90;2.63;;;22.40;99.90;;;;;;4984937;28;20190;-89
2022/09/12 10:39:53;;;;;;;2.58;2.38;;;22.60;99.90;;;;;;4980804;28;20285;-87
2022/09/12 10:42:41;;;;;;;2.88;2.50;;;22.60;99.90;;;;;;4999237;28;20171;-88
2022/09/12 10:45:22;;;;;;;2.42;2.22;;;22.70;99.90;;;;;;4996439;28;20249;-88
2022/09/12 10:47:49;;;;;;;2.47;1.80;;;22.80;99.90;;;;;;4993497;28;20212;-89
2022/09/12 10:50:26;;;;;;;2.40;2.20;;;22.90;99.90;;;;;;5001468;28;20220;-88
2022/09/12 10:53:22;;;;;;;2.58;2.30;;;23.10;99.90;;;;;;5016713;28;20229;-88
2022/09/12 10:56:09;;;;;;;2.58;2.38;;;23.30;99.90;;;;;;5002021;28;20252;-88
2022/09/12 10:58:43;;;;;;;2.70;2.50;;;23.50;99.90;;;;;;5001408;28;20182;-89
2022/09/12 11:01:30;;;;;;;2.50;2.30;;;23.60;99.90;;;;;;4987016;28;20330;-89
2022/09/12 11:04:16;;;;;;;3.13;2.15;;;23.60;99.90;;;;;;5009324;28;20206;-89
2022/09/12 11:07:15;;;;;;;2.50;1.80;;;23.60;99.90;;;;;;5000186;28;20210;-88
2022/09/12 11:09:50;;;;;;;1.90;1.45;;;23.50;99.90;;;;;;5000256;28;20178;-88
2022/09/12 11:12:34;;;;;;;1.63;1.52;;;23.60;99.90;;;;;;5000749;28;20204;-88
2022/09/12 11:15:41;;;;;;;1.70;1.60;;;23.70;99.90;;;;;;4999978;28;20202;-89
2022/09/12 11:18:22;;;;;;;2.42;1.50;;;23.90;99.90;;;;;;4998096;28;20201;-89
2022/09/12 11:20:57;;;;;;;1.67;1.50;;;24.00;99.90;;;;;;4995867;28;20171;-89
2022/09/12 11:23:41;;;;;;;1.77;1.48;;;24.00;99.90;;;;;;4998661;28;20170;-89
2022/09/12 11:26:33;;;;;;;1.50;1.40;;;24.10;99.90;;;;;;4999343;28;20222;-89
2022/09/12 11:29:14;;;;;;;1.45;1.35;;;24.30;99.90;;;;;;5007435;28;20198;-89
2022/09/12 11:32:28;;;;;;;2.88;1.80;;;24.40;99.90;;;;;;5005512;28;20202;-89
2022/09/12 11:35:06;;;;;;;1.92;1.83;;;24.20;99.90;;;;;;5013176;28;20281;-89
2022/09/12 11:37:51;;;;;;;2.30;1.40;;;24.10;99.90;;;;;;4997214;28;20228;-89
2022/09/12 11:40:26;;;;;;;1.40;1.30;;;24.30;99.90;;;;;;4991745;28;20194;-90
2022/09/12 11:43:00;;;;;;;1.77;1.67;;;24.30;99.90;;;;;;4989803;28;20182;-90
2022/09/12 11:46:04;;;;;;;1.75;1.60;;;24.30;99.90;;;;;;5005937;28;20213;-89
2022/09/12 11:48:59;;;;;;;3.00;1.70;;;24.30;99.90;;;;;;4975659;28;20198;-90
2022/09/12 11:51:34;;;;;;;1.60;1.50;;;24.60;99.90;;;;;;5007182;28;20206;-89
2022/09/12 11:54:34;;;;;;;1.60;1.50;;;24.90;99.90;;;;;;5001319;28;20202;-90
2022/09/12 11:57:38;;;;;;;1.55;1.45;;;24.90;99.90;;;;;;4997923;28;20311;-90
2022/09/12 12:00:07;;;;;;;1.30;1.20;;;25.10;99.90;;;;;;4965090;28;20206;-89
2022/09/12 12:02:42;;;;;;;1.10;1.10;;;25.10;99.90;;;;;;5002427;28;20179;-90
2022/09/12 12:05:41;;;;;;;1.55;1.45;;;25.20;99.90;;;;;;4998525;28;20206;-90
2022/09/12 12:08:09;;;;;;;1.70;1.25;;;25.50;99.90;;;;;;4989421;28;20183;-90
2022/09/12 12:11:03;;;;;;;1.20;1.20;;;25.70;99.90;;;;;;4993334;28;20179;-90
2022/09/12 12:13:38;;;;;;;1.80;1.45;;;25.90;99.90;;;;;;5010276;28;20194;-90
2022/09/12 12:16:24;;;;;;;1.42;1.33;;;26.00;99.90;;;;;;4998241;28;20186;-89
2022/09/12 12:18:56;;;;;;;1.42;1.33;;;26.30;99.90;;;;;;4992494;28;20398;-90
2022/09/12 12:21:47;;;;;;;1.80;1.45;;;26.40;99.90;;;;;;4982681;28;20198;-89
2022/09/12 12:24:15;;;;;;;1.48;1.38;;;26.50;99.90;;;;;;5012790;28;20246;-90
2022/09/12 12:27:01;;;;;;;1.40;1.30;;;26.50;99.90;;;;;;4994690;28;20207;-90
2022/09/12 12:29:38;;;;;;;1.50;1.40;;;26.70;99.90;;;;;;5009829;28;20232;-90
2022/09/12 12:32:04;;;;;;;1.42;1.23;;;26.90;99.90;;;;;;4995312;28;20187;-89
2022/09/12 12:34:36;;;;;;;1.48;1.38;;;27.10;99.90;;;;;;4996429;28;20289;-90
2022/09/12 12:37:20;;;;;;;1.55;1.45;;;27.10;99.90;;;;;;4987932;28;20186;-89
2022/09/12 12:40:03;;;;;;;1.42;1.33;;;26.80;99.90;;;;;;4998051;28;20240;-90
2022/09/12 12:42:35;;;;;;;1.92;1.50;;;26.60;99.90;;;;;;4982790;28;20181;-90
2022/09/12 12:45:44;;;;;;;1.70;1.60;;;26.60;99.90;;;;;;4989823;28;20302;-92
2022/09/12 12:48:15;;;;;;;1.52;1.42;;;26.60;99.90;;;;;;5006616;28;20198;-89
2022/09/12 12:50:41;;;;;;;1.48;1.35;;;26.80;99.90;;;;;;4999867;28;20195;-89
2022/09/12 12:53:26;;;;;;;1.42;1.30;;;26.80;99.90;;;;;;4997261;28;20270;-90
2022/09/12 12:55:54;;;;;;;1.40;1.30;;;26.80;99.90;;;;;;4984647;28;20207;-90
2022/09/12 12:58:36;;;;;;;1.40;1.30;;;26.80;99.90;;;;;;5014131;28;20179;-90
2022/09/12 13:01:21;;;;;;;1.40;1.20;;;26.70;99.90;;;;;;4999917;28;20228;-89
2022/09/12 13:04:04;;;;;;;1.77;1.63;;;26.90;99.90;;;;;;4997434;28;20200;-89
2022/09/12 13:06:35;;;;;;;1.50;1.40;;;26.70;99.90;;;;;;4996485;28;20285;-90
2022/09/12 13:09:23;;;;;;;1.30;1.20;;;26.40;99.90;;;;;;4999963;28;20195;-89
2022/09/12 13:12:03;;;;;;;1.85;1.27;;;26.60;99.90;;;;;;4999257;28;20185;-90
2022/09/12 13:14:53;;;;;;;1.63;1.40;;;26.70;99.90;;;;;;4984584;28;20198;-89
2022/09/12 13:17:31;;;;;;;1.23;1.20;;;26.80;99.90;;;;;;4980324;28;20188;-90
2022/09/12 13:20:11;;;;;;;1.40;1.30;;;26.90;99.90;;;;;;5010564;28;20186;-90